Time;durP1;ratioP1;P1;durP2;ratioP2;P2;SDS_P1;SDS_P2;PMS_P1;PMS_P2;Temp;Humidity;BMP_temperature;BMP_pressure;BME280_temperature;BME280_humidity;BME280_pressure;Samples;Min_cycle;Max_cycle;Signal;HPM_P1;HPM_P2
2022/12/23 00:00:09;;;;;;;16.20;9.55;;;;;;;;;;5037301;28;20025;-82
2022/12/23 00:02:35;;;;;;;14.52;8.93;;;;;;;;;;5038352;28;20036;-82
2022/12/23 00:05:01;;;;;;;14.60;9.00;;;;;;;;;;5038091;28;20549;-81
2022/12/23 00:07:27;;;;;;;16.65;9.70;;;;;;;;;;5038688;28;20047;-82
2022/12/23 00:09:53;;;;;;;17.00;9.88;;;;;;;;;;5038132;28;20491;-81
2022/12/23 00:15:04;;;;;;;17.60;9.85;;;;;;;;;;5037479;28;20033;-82
2022/12/23 00:17:30;;;;;;;18.42;10.13;;;;;;;;;;5037331;28;20026;-81
2022/12/23 00:19:56;;;;;;;16.83;11.73;;;;;;;;;;5037405;28;20061;-82
2022/12/23 00:23:03;;;;;;;15.90;9.95;;;;;;;;;;5038542;28;20060;-81
2022/12/23 00:25:08;;;;;;;18.20;9.85;;;;;;;;;;5036527;28;20037;-82
2022/12/23 00:27:34;;;;;;;16.83;9.88;;;;;;;;;;5038474;28;20033;-82
2022/12/23 00:30:00;;;;;;;16.08;10.45;;;;;;;;;;5036532;28;20033;-81
2022/12/23 00:32:26;;;;;;;19.40;11.02;;;;;;;;;;5036380;28;20047;-82
2022/12/23 00:34:52;;;;;;;16.98;9.95;;;;;;;;;;5036849;28;20514;-82
2022/12/23 00:37:18;;;;;;;16.25;9.38;;;;;;;;;;5037104;28;20602;-82
2022/12/23 00:45:16;;;;;;;16.73;10.60;;;;;;;;;;5039661;28;20387;-81
2022/12/23 00:50:28;;;;;;;18.55;11.48;;;;;;;;;;5037618;28;20043;-82
2022/12/23 00:52:54;;;;;;;16.30;10.52;;;;;;;;;;5036938;28;20026;-81
2022/12/23 00:55:21;;;;;;;19.48;10.38;;;;;;;;;;5036552;28;20026;-82
2022/12/23 00:57:47;;;;;;;18.50;10.88;;;;;;;;;;5036114;28;20025;-82
2022/12/23 01:00:13;;;;;;;18.25;10.43;;;;;;;;;;5037338;28;20040;-82
2022/12/23 01:05:36;;;;;;;17.15;10.80;;;;;;;;;;5036723;28;20175;-82
2022/12/23 01:08:02;;;;;;;17.33;9.68;;;;;;;;;;5036201;28;20136;-82
2022/12/23 01:10:28;;;;;;;20.02;12.07;;;;;;;;;;5036778;28;20026;-81
2022/12/23 01:12:54;;;;;;;19.55;10.60;;;;;;;;;;5036839;28;20030;-81
2022/12/23 01:15:20;;;;;;;18.98;11.07;;;;;;;;;;5035126;28;20026;-81
2022/12/23 01:17:46;;;;;;;19.50;11.13;;;;;;;;;;5036402;28;20029;-81
2022/12/23 01:20:13;;;;;;;15.73;10.50;;;;;;;;;;5037364;28;20024;-82
2022/12/23 01:22:39;;;;;;;19.20;11.70;;;;;;;;;;5036783;28;20033;-82
2022/12/23 01:25:05;;;;;;;24.23;13.15;;;;;;;;;;5035185;28;20052;-81
2022/12/23 01:27:31;;;;;;;19.85;13.27;;;;;;;;;;5037169;28;20434;-82
2022/12/23 01:29:57;;;;;;;18.50;11.82;;;;;;;;;;5033931;28;20033;-82
2022/12/23 01:32:23;;;;;;;18.02;12.00;;;;;;;;;;5034711;28;20049;-82
2022/12/23 01:34:49;;;;;;;20.88;13.25;;;;;;;;;;5036348;28;20029;-82
2022/12/23 01:37:15;;;;;;;24.27;12.45;;;;;;;;;;5036750;28;20022;-82
2022/12/23 01:39:41;;;;;;;20.33;12.32;;;;;;;;;;5042224;28;20295;-82
2022/12/23 01:44:59;;;;;;;20.92;12.27;;;;;;;;;;5049158;28;20043;-81
2022/12/23 01:47:28;;;;;;;19.73;12.63;;;;;;;;;;5042279;28;20499;-80
2022/12/23 01:50:07;;;;;;;21.77;13.25;;;;;;;;;;5035875;28;20053;-81
2022/12/23 01:52:35;;;;;;;25.90;12.38;;;;;;;;;;5035813;28;20041;-82
2022/12/23 01:55:01;;;;;;;21.50;13.07;;;;;;;;;;5035661;28;20029;-82
2022/12/23 01:57:27;;;;;;;21.98;12.77;;;;;;;;;;5036799;28;20064;-82
2022/12/23 02:05:23;;;;;;;20.70;11.57;;;;;;;;;;5037749;28;20060;-81
2022/12/23 02:10:45;;;;;;;19.10;11.68;;;;;;;;;;5035970;28;20963;-82
2022/12/23 02:13:11;;;;;;;21.13;12.50;;;;;;;;;;5036674;28;20025;-82
2022/12/23 02:16:17;;;;;;;22.35;13.13;;;;;;;;;;5035830;28;20530;-82
2022/12/23 02:18:52;;;;;;;22.42;12.20;;;;;;;;;;5035432;28;20037;-81
2022/12/23 02:21:27;;;;;;;22.25;12.13;;;;;;;;;;5034212;28;20462;-82
2022/12/23 02:24:02;;;;;;;21.45;12.77;;;;;;;;;;5034597;28;20475;-81
2022/12/23 02:26:47;;;;;;;21.92;11.50;;;;;;;;;;5035195;28;20033;-82
2022/12/23 02:29:32;;;;;;;22.20;13.85;;;;;;;;;;5035804;28;20108;-82
2022/12/23 02:32:07;;;;;;;22.63;13.63;;;;;;;;;;5035920;28;20079;-82
2022/12/23 02:34:40;;;;;;;22.95;12.30;;;;;;;;;;5035373;28;20564;-82
2022/12/23 02:37:20;;;;;;;23.35;14.05;;;;;;;;;;5034753;28;20029;-82
2022/12/23 02:39:58;;;;;;;23.38;13.23;;;;;;;;;;5035115;28;20041;-80
2022/12/23 02:42:29;;;;;;;25.65;13.55;;;;;;;;;;5039827;28;20021;-82
2022/12/23 02:45:01;;;;;;;24.58;14.75;;;;;;;;;;5014852;28;20038;-79
2022/12/23 02:47:30;;;;;;;29.80;15.95;;;;;;;;;;5019967;28;20021;-82
2022/12/23 02:49:57;;;;;;;26.85;13.82;;;;;;;;;;5036012;28;20034;-82
2022/12/23 02:52:26;;;;;;;26.77;14.50;;;;;;;;;;5036156;28;20018;-82
2022/12/23 02:54:55;;;;;;;21.67;13.25;;;;;;;;;;5035938;28;20080;-82
2022/12/23 02:57:24;;;;;;;25.88;15.20;;;;;;;;;;5037878;28;20117;-82
2022/12/23 02:59:51;;;;;;;25.48;15.02;;;;;;;;;;5038944;28;20021;-82
2022/12/23 03:02:18;;;;;;;25.77;13.50;;;;;;;;;;5038186;28;20443;-82
2022/12/23 03:04:44;;;;;;;24.85;15.20;;;;;;;;;;5038086;28;20033;-82
2022/12/23 03:07:15;;;;;;;23.17;13.93;;;;;;;;;;5038629;28;20064;-82
2022/12/23 03:10:00;;;;;;;27.10;15.75;;;;;;;;;;5038122;28;20021;-82
2022/12/23 03:12:32;;;;;;;24.55;14.18;;;;;;;;;;5037118;28;20036;-83
2022/12/23 03:15:18;;;;;;;25.58;14.35;;;;;;;;;;5038009;28;20039;-82
2022/12/23 03:17:50;;;;;;;19.55;13.32;;;;;;;;;;5030994;28;20076;-82
2022/12/23 03:20:32;;;;;;;22.25;13.02;;;;;;;;;;5039027;28;20029;-81
2022/12/23 03:23:16;;;;;;;27.73;14.25;;;;;;;;;;5037803;28;20034;-82
2022/12/23 03:25:49;;;;;;;24.85;13.65;;;;;;;;;;5036001;28;20084;-82
2022/12/23 03:28:15;;;;;;;;;;;;;;;;;;5038078;28;20034;-82
2022/12/23 03:30:44;;;;;;;25.20;13.05;;;;;;;;;;5037657;28;20362;-81
2022/12/23 03:33:15;;;;;;;24.38;13.77;;;;;;;;;;5037650;28;20025;-82
2022/12/23 03:35:48;;;;;;;32.10;17.10;;;;;;;;;;5038480;28;20557;-83
2022/12/23 03:38:14;;;;;;;;;;;;;;;;;;5039764;28;20022;-82
2022/12/23 03:40:45;;;;;;;36.03;16.55;;;;;;;;;;5036534;28;19919;-82
2022/12/23 03:43:15;;;;;;;28.10;16.67;;;;;;;;;;5039263;28;20084;-82
2022/12/23 03:45:44;;;;;;;26.67;15.52;;;;;;;;;;5037760;28;20033;-82
2022/12/23 03:48:21;;;;;;;29.45;15.98;;;;;;;;;;5048412;28;20419;-80
2022/12/23 03:50:48;;;;;;;28.77;16.63;;;;;;;;;;5041138;28;20030;-81
2022/12/23 03:53:28;;;;;;;27.17;17.33;;;;;;;;;;5050649;28;20057;-80
2022/12/23 03:55:57;;;;;;;28.48;16.77;;;;;;;;;;5054737;28;20067;-81
2022/12/23 03:58:38;;;;;;;27.27;17.10;;;;;;;;;;5053436;28;20085;-82
2022/12/23 04:01:11;;;;;;;28.48;15.88;;;;;;;;;;5055208;28;20033;-82
2022/12/23 04:03:55;;;;;;;26.17;16.08;;;;;;;;;;5051746;28;20044;-82
2022/12/23 04:06:23;;;;;;;26.80;15.85;;;;;;;;;;5038372;28;20133;-80
2022/12/23 04:08:50;;;;;;;25.77;15.75;;;;;;;;;;5037480;28;20045;-82
2022/12/23 04:11:16;;;;;;;29.23;16.80;;;;;;;;;;5038487;28;20049;-82
2022/12/23 04:13:42;;;;;;;26.70;17.45;;;;;;;;;;5036048;28;20098;-80
2022/12/23 04:16:08;;;;;;;25.85;16.25;;;;;;;;;;5038961;28;20022;-82
2022/12/23 04:18:34;;;;;;;32.58;16.58;;;;;;;;;;5038267;28;20026;-82
2022/12/23 04:21:00;;;;;;;27.48;16.23;;;;;;;;;;5037000;28;20117;-81
2022/12/23 04:23:26;;;;;;;30.00;17.25;;;;;;;;;;5036384;28;20053;-83
2022/12/23 04:25:52;;;;;;;27.35;16.45;;;;;;;;;;5037418;28;20404;-82
2022/12/23 04:28:18;;;;;;;25.35;16.27;;;;;;;;;;5045810;28;20033;-82
2022/12/23 04:30:44;;;;;;;33.83;18.25;;;;;;;;;;5054859;28;20053;-82
2022/12/23 04:33:11;;;;;;;32.70;18.17;;;;;;;;;;5055055;28;20029;-82
2022/12/23 04:35:37;;;;;;;34.67;19.33;;;;;;;;;;5053084;28;20033;-78
2022/12/23 04:38:03;;;;;;;28.77;16.27;;;;;;;;;;5039965;28;20431;-82
2022/12/23 04:40:29;;;;;;;29.40;17.45;;;;;;;;;;5038132;28;20031;-82
2022/12/23 04:42:55;;;;;;;29.52;16.60;;;;;;;;;;5037849;28;20117;-82
2022/12/23 04:45:21;;;;;;;31.45;17.05;;;;;;;;;;5037194;28;20022;-82
2022/12/23 04:47:48;;;;;;;29.45;16.10;;;;;;;;;;5036573;28;20608;-80
2022/12/23 04:50:15;;;;;;;29.23;16.65;;;;;;;;;;5035975;28;20044;-81
2022/12/23 04:52:41;;;;;;;28.48;17.05;;;;;;;;;;5036178;28;20419;-80
2022/12/23 04:55:08;;;;;;;30.60;17.17;;;;;;;;;;5035338;28;20026;-82
2022/12/23 04:57:34;;;;;;;30.77;17.38;;;;;;;;;;5035015;28;20362;-81
2022/12/23 05:00:00;;;;;;;31.23;16.73;;;;;;;;;;5036076;28;20051;-81
2022/12/23 05:02:26;;;;;;;26.48;14.85;;;;;;;;;;5034837;28;20491;-81
2022/12/23 05:04:52;;;;;;;26.92;15.40;;;;;;;;;;5033580;28;20151;-82
2022/12/23 05:07:18;;;;;;;27.10;15.45;;;;;;;;;;5032941;28;20618;-81
2022/12/23 05:09:44;;;;;;;28.00;16.38;;;;;;;;;;5029754;28;20052;-82
2022/12/23 05:12:10;;;;;;;29.98;15.68;;;;;;;;;;5041328;28;20021;-80
2022/12/23 05:14:36;;;;;;;25.23;14.50;;;;;;;;;;5053251;28;20021;-81
2022/12/23 05:17:02;;;;;;;24.98;16.15;;;;;;;;;;5044032;28;20140;-81
2022/12/23 05:19:28;;;;;;;29.33;17.33;;;;;;;;;;5042634;28;20017;-79
2022/12/23 05:21:54;;;;;;;27.00;16.08;;;;;;;;;;5037265;28;20321;-81
2022/12/23 05:24:20;;;;;;;31.80;16.95;;;;;;;;;;5037236;28;20061;-81
2022/12/23 05:26:47;;;;;;;28.05;16.80;;;;;;;;;;5039020;28;20510;-82
2022/12/23 05:29:14;;;;;;;22.80;15.02;;;;;;;;;;5037998;28;20030;-81
2022/12/23 05:31:40;;;;;;;25.42;15.07;;;;;;;;;;5053859;28;20017;-82
2022/12/23 05:34:06;;;;;;;26.92;15.73;;;;;;;;;;5037267;28;20030;-80
2022/12/23 05:36:32;;;;;;;28.75;15.60;;;;;;;;;;5037009;28;20026;-79
2022/12/23 05:38:58;;;;;;;27.15;16.00;;;;;;;;;;5034244;28;20479;-82
2022/12/23 05:41:24;;;;;;;27.40;15.43;;;;;;;;;;5041748;28;20032;-81
2022/12/23 05:43:50;;;;;;;25.10;15.20;;;;;;;;;;5035589;28;20109;-81
2022/12/23 05:46:16;;;;;;;28.42;16.35;;;;;;;;;;5035408;28;20475;-81
2022/12/23 05:48:42;;;;;;;24.25;15.15;;;;;;;;;;5042357;28;20086;-79
2022/12/23 05:51:08;;;;;;;28.25;15.93;;;;;;;;;;5040987;28;20026;-81
2022/12/23 05:53:34;;;;;;;27.23;15.68;;;;;;;;;;5038293;28;20114;-81
2022/12/23 05:56:03;;;;;;;33.13;17.13;;;;;;;;;;5038276;28;20017;-81
2022/12/23 05:58:29;;;;;;;28.10;16.90;;;;;;;;;;5035546;28;20041;-81
2022/12/23 06:00:55;;;;;;;25.45;15.35;;;;;;;;;;5036526;28;20040;-81
2022/12/23 06:03:21;;;;;;;28.15;15.93;;;;;;;;;;5039450;28;20025;-81
2022/12/23 06:05:51;;;;;;;24.63;15.40;;;;;;;;;;5035136;28;20491;-81
2022/12/23 06:08:17;;;;;;;35.63;18.27;;;;;;;;;;5034385;28;20049;-81
2022/12/23 06:10:43;;;;;;;40.10;21.98;;;;;;;;;;5035707;28;20076;-82
2022/12/23 06:13:09;;;;;;;35.28;20.85;;;;;;;;;;5027079;28;20464;-81
2022/12/23 06:15:35;;;;;;;37.45;21.85;;;;;;;;;;5034980;28;20029;-82
2022/12/23 06:18:01;;;;;;;36.88;20.20;;;;;;;;;;5036747;28;20026;-82
2022/12/23 06:20:27;;;;;;;39.83;22.45;;;;;;;;;;5036499;28;20067;-83
2022/12/23 06:22:53;;;;;;;37.05;19.92;;;;;;;;;;5032479;28;20493;-82
2022/12/23 06:25:22;;;;;;;39.05;20.33;;;;;;;;;;5037483;28;20064;-81
2022/12/23 06:27:48;;;;;;;35.55;20.70;;;;;;;;;;5043143;28;20025;-82
2022/12/23 06:30:14;;;;;;;46.13;21.33;;;;;;;;;;5044804;28;20047;-82
2022/12/23 06:32:40;;;;;;;41.17;20.42;;;;;;;;;;5043563;28;20025;-80
2022/12/23 06:35:07;;;;;;;41.80;19.98;;;;;;;;;;5038597;28;20034;-81
2022/12/23 06:37:33;;;;;;;37.72;20.17;;;;;;;;;;5055674;28;20467;-82
2022/12/23 06:39:59;;;;;;;50.70;25.35;;;;;;;;;;5040630;28;20078;-83
2022/12/23 06:42:25;;;;;;;52.38;23.88;;;;;;;;;;5037910;28;20036;-83
2022/12/23 06:44:52;;;;;;;43.53;22.92;;;;;;;;;;5039900;28;20022;-83
2022/12/23 06:47:18;;;;;;;48.10;25.02;;;;;;;;;;5040806;28;20033;-83
2022/12/23 06:49:44;;;;;;;43.20;23.23;;;;;;;;;;5030966;28;20050;-83
2022/12/23 06:52:10;;;;;;;41.17;24.55;;;;;;;;;;5040199;28;20097;-82
2022/12/23 06:54:36;;;;;;;42.13;22.05;;;;;;;;;;5042032;28;20095;-83
2022/12/23 06:57:02;;;;;;;38.60;20.95;;;;;;;;;;5041537;28;20483;-83
2022/12/23 06:59:28;;;;;;;42.53;22.60;;;;;;;;;;5040779;28;20021;-83
2022/12/23 07:01:54;;;;;;;39.25;20.83;;;;;;;;;;5041569;28;20017;-83
2022/12/23 07:04:20;;;;;;;41.75;22.50;;;;;;;;;;5041496;28;20116;-83
2022/12/23 07:06:47;;;;;;;40.47;22.75;;;;;;;;;;5041944;28;20036;-84
2022/12/23 07:09:12;;;;;;;40.85;23.08;;;;;;;;;;5040259;28;20018;-83
2022/12/23 07:11:39;;;;;;;44.78;23.05;;;;;;;;;;5040276;28;20053;-82
2022/12/23 07:14:06;;;;;;;37.30;22.05;;;;;;;;;;5043234;28;20498;-83
2022/12/23 07:16:32;;;;;;;39.58;20.55;;;;;;;;;;5041943;28;20541;-82
2022/12/23 07:18:58;;;;;;;51.65;27.40;;;;;;;;;;5041557;28;20025;-83
2022/12/23 07:21:24;;;;;;;43.00;24.67;;;;;;;;;;5038480;28;20029;-83
2022/12/23 07:23:50;;;;;;;42.50;21.40;;;;;;;;;;5038157;28;20465;-82
2022/12/23 07:26:16;;;;;;;44.15;23.58;;;;;;;;;;5070161;28;20041;-83
2022/12/23 07:28:46;;;;;;;42.70;21.33;;;;;;;;;;5039187;28;20027;-83
2022/12/23 07:31:12;;;;;;;38.28;21.88;;;;;;;;;;5041450;28;20028;-83
2022/12/23 07:33:38;;;;;;;44.28;22.40;;;;;;;;;;5040949;28;20029;-84
2022/12/23 07:36:04;;;;;;;37.92;21.13;;;;;;;;;;5039787;28;20365;-83
2022/12/23 07:38:30;;;;;;;37.47;20.73;;;;;;;;;;5037772;28;20029;-82
2022/12/23 07:40:57;;;;;;;36.90;20.35;;;;;;;;;;5037389;28;20091;-82
2022/12/23 07:49:31;;;;;;;31.05;16.88;;;;;;;;;;4028952;28;20973;-83
2022/12/23 07:58:04;;;;;;;37.05;18.13;;;;;;;;;;5037240;28;20052;-82
2022/12/23 08:00:31;;;;;;;37.53;19.80;;;;;;;;;;5043137;28;20032;-83
2022/12/23 08:02:57;;;;;;;38.95;20.13;;;;;;;;;;5047952;28;20089;-84
2022/12/23 08:05:23;;;;;;;39.00;20.27;;;;;;;;;;5043909;28;20036;-85
2022/12/23 08:07:49;;;;;;;38.08;21.10;;;;;;;;;;5043875;28;20132;-82
2022/12/23 08:10:15;;;;;;;39.10;20.77;;;;;;;;;;5042046;28;20028;-82
2022/12/23 08:12:41;;;;;;;41.30;21.83;;;;;;;;;;5041983;28;20036;-82
2022/12/23 08:15:08;;;;;;;41.40;21.33;;;;;;;;;;5037992;28;20021;-84
2022/12/23 08:17:34;;;;;;;34.75;18.67;;;;;;;;;;5037166;28;20029;-83
2022/12/23 08:20:00;;;;;;;41.88;20.77;;;;;;;;;;5031458;28;20400;-84
2022/12/23 08:22:26;;;;;;;37.10;21.30;;;;;;;;;;5035527;28;20026;-84
2022/12/23 08:24:52;;;;;;;34.53;19.67;;;;;;;;;;5035199;28;20049;-81
2022/12/23 08:27:18;;;;;;;43.92;22.83;;;;;;;;;;5037595;28;20472;-84
2022/12/23 08:29:44;;;;;;;40.95;19.83;;;;;;;;;;5036634;28;20028;-84
2022/12/23 08:32:10;;;;;;;40.65;20.88;;;;;;;;;;5030796;28;20049;-84
2022/12/23 08:34:36;;;;;;;40.75;19.50;;;;;;;;;;5039525;28;20035;-86
2022/12/23 08:37:02;;;;;;;35.65;18.50;;;;;;;;;;5037320;28;20025;-86
2022/12/23 08:39:28;;;;;;;38.40;20.02;;;;;;;;;;5037713;28;20026;-84
2022/12/23 08:41:55;;;;;;;40.35;18.98;;;;;;;;;;5036263;28;20061;-83
2022/12/23 08:44:21;;;;;;;40.00;20.00;;;;;;;;;;5040551;28;20014;-83
2022/12/23 08:46:47;;;;;;;41.65;18.73;;;;;;;;;;5033686;28;20025;-81
2022/12/23 08:49:13;;;;;;;47.95;22.45;;;;;;;;;;5035490;28;20060;-85
2022/12/23 08:51:39;;;;;;;44.95;24.13;;;;;;;;;;5036217;28;20030;-84
2022/12/23 08:54:05;;;;;;;46.35;22.05;;;;;;;;;;5033063;28;20025;-83
2022/12/23 08:56:32;;;;;;;39.60;23.17;;;;;;;;;;5034685;28;20025;-84
2022/12/23 08:58:59;;;;;;;40.28;22.02;;;;;;;;;;5035653;28;20017;-84
2022/12/23 09:01:26;;;;;;;50.75;25.50;;;;;;;;;;5035252;28;20081;-83
2022/12/23 09:03:52;;;;;;;42.97;23.83;;;;;;;;;;5041229;28;20490;-82
2022/12/23 09:06:19;;;;;;;41.33;21.60;;;;;;;;;;5036265;28;20022;-84
2022/12/23 09:08:46;;;;;;;45.15;22.85;;;;;;;;;;5034558;28;20098;-83
2022/12/23 09:11:14;;;;;;;38.45;20.95;;;;;;;;;;5034152;28;20021;-83
2022/12/23 09:13:40;;;;;;;38.30;22.15;;;;;;;;;;5032020;28;20086;-84
2022/12/23 09:16:07;;;;;;;37.83;20.13;;;;;;;;;;5035547;28;20048;-84
2022/12/23 09:18:33;;;;;;;38.17;21.15;;;;;;;;;;5036020;28;20026;-82
2022/12/23 09:21:00;;;;;;;40.03;21.95;;;;;;;;;;5034351;28;20036;-83
2022/12/23 09:23:26;;;;;;;33.97;20.02;;;;;;;;;;5030550;28;20026;-82
2022/12/23 09:25:52;;;;;;;30.30;19.15;;;;;;;;;;5036821;28;20036;-81
2022/12/23 09:28:19;;;;;;;36.97;20.63;;;;;;;;;;5034334;28;20064;-83
2022/12/23 09:30:45;;;;;;;37.28;21.73;;;;;;;;;;5032170;28;20032;-83
2022/12/23 09:33:11;;;;;;;41.33;21.33;;;;;;;;;;5032172;28;20051;-83
2022/12/23 09:35:38;;;;;;;37.00;20.98;;;;;;;;;;5030770;28;20024;-83
2022/12/23 09:38:04;;;;;;;35.42;20.38;;;;;;;;;;5034567;28;20025;-84
2022/12/23 09:40:31;;;;;;;38.10;19.63;;;;;;;;;;5065485;28;20017;-83
2022/12/23 09:43:20;;;;;;;39.50;21.75;;;;;;;;;;5045684;28;20025;-83
2022/12/23 09:45:46;;;;;;;35.05;20.05;;;;;;;;;;5032343;28;20038;-83
2022/12/23 09:48:16;;;;;;;37.80;22.13;;;;;;;;;;5035239;28;20060;-83
2022/12/23 09:50:44;;;;;;;40.50;21.83;;;;;;;;;;5029312;28;20788;-84
2022/12/23 09:53:26;;;;;;;35.55;19.75;;;;;;;;;;5034268;28;20021;-82
2022/12/23 09:56:11;;;;;;;32.92;19.92;;;;;;;;;;5031875;28;20046;-83
2022/12/23 09:58:39;;;;;;;31.23;17.45;;;;;;;;;;5034223;28;20036;-82
2022/12/23 10:01:06;;;;;;;28.33;16.73;;;;;;;;;;5035640;28;20036;-82
2022/12/23 10:03:39;;;;;;;33.08;17.30;;;;;;;;;;5030388;28;20033;-82
2022/12/23 10:06:15;;;;;;;38.30;18.17;;;;;;;;;;5037503;28;20032;-81
2022/12/23 10:08:42;;;;;;;30.20;17.50;;;;;;;;;;5034748;28;20041;-81
2022/12/23 10:11:14;;;;;;;34.65;17.65;;;;;;;;;;5038949;28;20026;-82
2022/12/23 10:13:43;;;;;;;32.25;17.60;;;;;;;;;;5041964;28;20360;-82
2022/12/23 10:16:15;;;;;;;36.60;18.13;;;;;;;;;;5037597;28;20083;-81
2022/12/23 10:19:00;;;;;;;38.28;20.17;;;;;;;;;;5041964;28;20045;-80
2022/12/23 10:21:31;;;;;;;36.58;17.08;;;;;;;;;;5039865;28;20052;-81
2022/12/23 10:24:00;;;;;;;36.47;18.03;;;;;;;;;;5057412;28;20065;-77
2022/12/23 10:26:30;;;;;;;37.83;17.98;;;;;;;;;;5059599;28;20072;-77
2022/12/23 10:29:05;;;;;;;39.05;18.40;;;;;;;;;;5056078;28;20084;-77
2022/12/23 10:31:36;;;;;;;35.15;17.98;;;;;;;;;;5046045;28;20028;-82
2022/12/23 10:34:11;;;;;;;35.13;18.00;;;;;;;;;;5072597;28;20022;-82
2022/12/23 10:36:43;;;;;;;36.03;17.35;;;;;;;;;;5035037;28;20032;-81
2022/12/23 10:39:21;;;;;;;38.08;19.45;;;;;;;;;;5036951;28;20056;-83
2022/12/23 10:41:59;;;;;;;36.33;18.58;;;;;;;;;;5035995;28;20047;-82
2022/12/23 10:44:25;;;;;;;33.47;18.17;;;;;;;;;;5038596;28;20037;-82
2022/12/23 10:46:58;;;;;;;38.55;19.25;;;;;;;;;;5040578;28;20052;-83
2022/12/23 10:49:43;;;;;;;38.95;20.38;;;;;;;;;;5040924;28;20048;-84
2022/12/23 10:52:14;;;;;;;34.67;19.10;;;;;;;;;;5048697;28;20038;-80
2022/12/23 10:54:41;;;;;;;35.38;19.27;;;;;;;;;;5058316;28;20022;-81
2022/12/23 10:57:08;;;;;;;38.08;18.98;;;;;;;;;;5058958;28;20024;-79
2022/12/23 10:59:35;;;;;;;35.97;19.17;;;;;;;;;;5053712;28;20379;-82
2022/12/23 11:02:13;;;;;;;35.72;19.55;;;;;;;;;;5039014;28;20559;-83
2022/12/23 11:04:41;;;;;;;37.78;19.27;;;;;;;;;;5040216;28;20633;-83
2022/12/23 11:07:08;;;;;;;35.03;19.67;;;;;;;;;;5039965;28;20073;-83
2022/12/23 11:09:54;;;;;;;37.95;19.65;;;;;;;;;;5038734;28;20029;-83
2022/12/23 11:12:24;;;;;;;37.30;20.20;;;;;;;;;;5040809;28;20026;-83
2022/12/23 11:14:52;;;;;;;40.03;19.77;;;;;;;;;;5039634;28;20022;-83
2022/12/23 11:17:22;;;;;;;32.55;18.27;;;;;;;;;;5038710;28;20573;-83
2022/12/23 11:20:05;;;;;;;33.55;17.55;;;;;;;;;;5039163;28;20045;-83
2022/12/23 11:22:31;;;;;;;34.67;17.25;;;;;;;;;;5039063;28;20026;-82
2022/12/23 11:25:16;;;;;;;33.30;17.77;;;;;;;;;;5040375;28;20038;-83
2022/12/23 11:27:44;;;;;;;34.58;20.08;;;;;;;;;;5040039;28;20442;-82
2022/12/23 11:30:17;;;;;;;35.05;18.25;;;;;;;;;;5040190;28;20049;-83
2022/12/23 11:32:44;;;;;;;34.05;18.10;;;;;;;;;;5039341;28;20024;-83
2022/12/23 11:35:24;;;;;;;35.08;18.05;;;;;;;;;;5037428;28;20032;-83
2022/12/23 11:37:50;;;;;;;32.53;17.27;;;;;;;;;;5045631;28;20030;-79
2022/12/23 11:40:27;;;;;;;34.83;18.20;;;;;;;;;;5052153;28;20487;-82
2022/12/23 11:43:01;;;;;;;33.10;17.60;;;;;;;;;;5034189;28;20229;-84
2022/12/23 11:45:28;;;;;;;31.20;16.65;;;;;;;;;;5045913;28;20029;-82
2022/12/23 11:47:55;;;;;;;32.90;16.73;;;;;;;;;;5040914;28;20510;-82
2022/12/23 11:50:24;;;;;;;36.67;17.30;;;;;;;;;;5042943;28;20046;-82
2022/12/23 11:52:51;;;;;;;32.40;17.42;;;;;;;;;;5071832;28;20033;-82
2022/12/23 11:55:31;;;;;;;29.00;16.30;;;;;;;;;;5039721;28;20097;-81
2022/12/23 11:57:58;;;;;;;33.08;17.98;;;;;;;;;;5040303;28;20060;-82
2022/12/23 12:00:29;;;;;;;29.90;16.45;;;;;;;;;;5036718;28;20047;-82
2022/12/23 12:02:57;;;;;;;30.35;18.08;;;;;;;;;;5036682;28;20032;-83
2022/12/23 12:05:24;;;;;;;30.38;15.68;;;;;;;;;;5044514;28;20059;-82
2022/12/23 12:07:51;;;;;;;32.42;17.65;;;;;;;;;;5049290;28;20043;-83
2022/12/23 12:10:21;;;;;;;30.80;19.58;;;;;;;;;;5037203;28;20063;-83
2022/12/23 12:12:53;;;;;;;33.83;17.40;;;;;;;;;;5042250;28;20030;-83
2022/12/23 12:15:24;;;;;;;33.22;16.92;;;;;;;;;;5034018;28;20025;-81
2022/12/23 12:17:51;;;;;;;32.75;18.08;;;;;;;;;;5039833;28;20521;-83
2022/12/23 12:20:26;;;;;;;34.45;17.92;;;;;;;;;;5039424;28;20168;-83
2022/12/23 12:23:12;;;;;;;35.00;17.38;;;;;;;;;;5021887;28;20487;-82
2022/12/23 12:25:50;;;;;;;36.40;17.75;;;;;;;;;;5034894;28;20037;-82
2022/12/23 12:28:24;;;;;;;33.13;17.92;;;;;;;;;;5043718;28;20391;-81
2022/12/23 12:30:57;;;;;;;29.30;16.67;;;;;;;;;;5031926;28;20075;-82
2022/12/23 12:33:27;;;;;;;28.85;15.60;;;;;;;;;;5035852;28;20029;-81
2022/12/23 12:35:56;;;;;;;30.92;16.60;;;;;;;;;;5040788;28;20576;-81
2022/12/23 12:38:25;;;;;;;28.90;15.93;;;;;;;;;;5035652;28;20026;-82
2022/12/23 12:40:57;;;;;;;25.30;14.38;;;;;;;;;;5041219;28;20507;-82
2022/12/23 12:43:34;;;;;;;23.95;14.27;;;;;;;;;;5033440;28;20125;-82
2022/12/23 12:46:21;;;;;;;27.67;15.75;;;;;;;;;;5039058;28;20360;-82
2022/12/23 12:49:10;;;;;;;23.17;14.18;;;;;;;;;;5035572;28;20511;-82
2022/12/23 12:51:42;;;;;;;24.65;14.32;;;;;;;;;;5058462;28;20038;-83
2022/12/23 12:54:21;;;;;;;28.00;13.77;;;;;;;;;;5036992;28;20494;-82
2022/12/23 12:56:51;;;;;;;27.83;13.85;;;;;;;;;;5034379;28;20029;-82
2022/12/23 12:59:19;;;;;;;26.30;15.05;;;;;;;;;;5031388;28;20022;-83
2022/12/23 13:01:48;;;;;;;27.63;15.73;;;;;;;;;;5051117;28;20024;-83
2022/12/23 13:04:33;;;;;;;32.80;16.52;;;;;;;;;;5043317;28;20029;-83
2022/12/23 13:07:02;;;;;;;27.63;15.73;;;;;;;;;;5030323;28;20193;-81
2022/12/23 13:09:48;;;;;;;28.08;14.98;;;;;;;;;;5034308;28;20072;-82
2022/12/23 13:12:23;;;;;;;28.23;14.88;;;;;;;;;;5028477;28;20044;-82
2022/12/23 13:15:04;;;;;;;24.50;15.02;;;;;;;;;;5036529;28;20131;-82
2022/12/23 13:17:53;;;;;;;25.60;13.35;;;;;;;;;;5035467;28;20021;-81
2022/12/23 13:20:27;;;;;;;24.42;13.32;;;;;;;;;;5033291;28;20025;-81
2022/12/23 13:22:55;;;;;;;27.50;14.30;;;;;;;;;;5029916;28;20068;-82
2022/12/23 13:25:27;;;;;;;25.90;14.05;;;;;;;;;;5036274;28;20036;-82
2022/12/23 13:27:59;;;;;;;26.55;13.85;;;;;;;;;;5039419;28;20109;-82
2022/12/23 13:30:27;;;;;;;28.63;15.18;;;;;;;;;;5035808;28;20022;-83
2022/12/23 13:33:12;;;;;;;25.08;15.23;;;;;;;;;;5036366;28;20045;-80
2022/12/23 13:35:44;;;;;;;24.67;14.38;;;;;;;;;;5042876;28;20101;-83
2022/12/23 13:38:25;;;;;;;26.90;14.40;;;;;;;;;;5036927;28;20152;-83
2022/12/23 13:41:10;;;;;;;25.25;14.40;;;;;;;;;;5034996;28;20026;-82
2022/12/23 13:43:40;;;;;;;24.30;13.98;;;;;;;;;;5027351;28;20104;-82
2022/12/23 13:46:11;;;;;;;32.03;15.95;;;;;;;;;;5036143;28;20116;-82
2022/12/23 13:48:58;;;;;;;29.45;15.90;;;;;;;;;;5037458;28;20037;-83
2022/12/23 13:51:44;;;;;;;30.58;15.85;;;;;;;;;;5035085;28;20041;-81
2022/12/23 13:54:22;;;;;;;34.78;16.45;;;;;;;;;;5034788;28;20456;-81
2022/12/23 13:56:52;;;;;;;37.28;15.50;;;;;;;;;;5041392;28;20056;-82
2022/12/23 13:59:18;;;;;;;40.38;15.35;;;;;;;;;;5036606;28;20029;-82
2022/12/23 14:01:46;;;;;;;31.63;16.10;;;;;;;;;;5052948;28;20027;-83
2022/12/23 14:04:32;;;;;;;30.27;15.63;;;;;;;;;;5038091;28;20060;-81
2022/12/23 14:07:00;;;;;;;36.38;16.83;;;;;;;;;;5035483;28;20033;-82
2022/12/23 14:09:28;;;;;;;30.98;16.45;;;;;;;;;;5031084;28;20509;-82
2022/12/23 14:11:55;;;;;;;28.42;15.60;;;;;;;;;;5037541;28;20063;-82
2022/12/23 14:14:23;;;;;;;40.85;17.40;;;;;;;;;;5035856;28;20395;-82
2022/12/23 14:16:55;;;;;;;34.78;15.80;;;;;;;;;;5034797;28;20083;-83
2022/12/23 14:19:43;;;;;;;30.85;14.45;;;;;;;;;;5015499;28;20037;-82
2022/12/23 14:22:28;;;;;;;27.08;14.35;;;;;;;;;;5017023;28;20026;-83
2022/12/23 14:25:11;;;;;;;31.88;15.07;;;;;;;;;;5016098;28;20036;-82
2022/12/23 14:27:56;;;;;;;27.00;13.35;;;;;;;;;;5021104;28;20377;-83
2022/12/23 14:30:37;;;;;;;27.27;13.15;;;;;;;;;;5035116;28;20021;-83
2022/12/23 14:33:13;;;;;;;26.23;13.30;;;;;;;;;;5036274;28;20040;-82
2022/12/23 14:35:39;;;;;;;24.23;12.57;;;;;;;;;;5034066;28;20033;-82
2022/12/23 14:38:10;;;;;;;28.90;13.00;;;;;;;;;;5035254;28;20029;-82
2022/12/23 14:40:38;;;;;;;24.08;13.32;;;;;;;;;;5036442;28;20025;-83
2022/12/23 14:43:26;;;;;;;24.40;12.93;;;;;;;;;;5033712;28;20038;-82
2022/12/23 14:45:53;;;;;;;23.05;13.93;;;;;;;;;;5035069;28;20025;-83
2022/12/23 14:48:34;;;;;;;25.85;13.35;;;;;;;;;;5022214;28;20373;-83
2022/12/23 14:51:09;;;;;;;36.67;15.63;;;;;;;;;;5018354;28;20069;-83
2022/12/23 14:53:36;;;;;;;22.75;12.85;;;;;;;;;;5047649;28;20052;-83
2022/12/23 14:56:15;;;;;;;25.17;14.57;;;;;;;;;;5041052;28;20033;-83
2022/12/23 14:58:51;;;;;;;28.63;13.60;;;;;;;;;;5024057;28;20100;-83
2022/12/23 15:01:35;;;;;;;25.92;14.45;;;;;;;;;;5046925;28;20025;-82
2022/12/23 15:04:15;;;;;;;27.27;14.43;;;;;;;;;;5049350;28;20040;-82
2022/12/23 15:06:42;;;;;;;24.52;12.98;;;;;;;;;;5040549;28;20068;-83
2022/12/23 15:09:16;;;;;;;30.38;15.07;;;;;;;;;;5039082;28;20025;-83
2022/12/23 15:11:42;;;;;;;20.65;12.45;;;;;;;;;;5072109;28;20033;-83